Sunday, July 22, 2018, 10:14 AM EDT
Back to Local

KPWM, Portland International Jetport

Location: Portland, ME, United States Lat: 43.65
Local Time: 10:14 AM EDT (14:14 GMT) Lon: -70.3
Time Zone: US/Eastern Elev: 75 ft

Show me the last for .
Show Decoded

2018-07-22 09:51 METAR KPWM 221351Z 08006KT 2SM -RA BR OVC007 17/17 A3017 RMK AO2 RAB07E33B47
                 SLP217 P0001 T01720167 $ =
2018-07-22 09:39 METAR KPWM 221339Z 06009KT 10SM OVC007 17/16 A3017 RMK AO2 RAB07E33 P0001
                 T01720161 $ =
2018-07-22 09:15 METAR KPWM 221315Z 07008G17KT 2SM -RA BR BKN008 OVC012 17/16 A3017 RMK AO2 RAB07
                 P0001 T01670161 $ =
2018-07-22 09:06 METAR KPWM 221306Z 07007KT 7SM BKN008 OVC012 17/16 A3017 RMK AO2 T01720156 =
2018-07-22 08:51 METAR KPWM 221251Z 06009KT 10SM FEW008 OVC014 17/16 A3017 RMK AO2 RAB09E37
                 SLP216 P0000 T01720156 =
2018-07-22 07:51 METAR KPWM 221151Z 07010KT 10SM OVC009 17/16 A3017 RMK AO2 SLP216 T01720156
                 10172 20150 50005 =
2018-07-22 06:51 METAR KPWM 221051Z 09009KT 10SM BKN005 OVC013 17/16 A3017 RMK AO2 SLP216
                 T01670161 =
2018-07-22 05:51 METAR KPWM 220951Z 08007KT 10SM BKN006 OVC015 17/16 A3015 RMK AO2 SLP211
                 T01670161 =
2018-07-22 05:14 METAR KPWM 220914Z VRB04KT 10SM SCT015 BKN085 17/16 A3015 RMK AO2 T01670161 =
2018-07-22 04:51 METAR KPWM 220851Z VRB03KT 10SM BKN015 OVC085 17/16 A3015 RMK AO2 SLP211
                 T01670161 51007 =
2018-07-22 04:36 METAR KPWM 220836Z 07004KT 10SM SCT006 BKN015 17/16 A3016 RMK AO2 T01670161 =
2018-07-22 03:51 METAR KPWM 220751Z AUTO 03003KT 10SM OVC006 17/16 A3015 RMK AO2 SLP209 T01670161
                 =
2018-07-22 03:07 METAR KPWM 220707Z AUTO 36005KT 10SM BKN007 OVC016 15/14 A3015 RMK AO2 T01500144
                 =
2018-07-22 02:59 METAR KPWM 220659Z AUTO VRB05KT 10SM SCT008 OVC016 16/15 A3014 RMK AO2 T01560150
                 =
2018-07-22 02:51 METAR KPWM 220651Z AUTO 34003KT 10SM OVC016 16/14 A3015 RMK AO2 SLP208 T01560144
                 =
2018-07-22 01:51 METAR KPWM 220551Z AUTO 00000KT 10SM BKN015 15/14 A3013 RMK AO2 SLP204 T01500144
                 10194 20144 58009 =
2018-07-22 01:26 METAR KPWM 220526Z AUTO VRB05KT 10SM BKN014 15/14 A3014 RMK AO2 T01500144 =
2018-07-22 00:51 METAR KPWM 220451Z AUTO VRB04KT 10SM CLR 15/14 A3016 RMK AO2 SLP212 T01500139
                 402440122 =
2018-07-21 23:51 METAR KPWM 220351Z 00000KT 10SM BKN250 16/14 A3016 RMK AO2 SLP212 LAST T01560139
                 =
2018-07-21 22:51 METAR KPWM 220251Z 00000KT 10SM BKN250 16/14 A3016 RMK AO2 SLP213 T01560144
                 58002 =
2018-07-21 21:51 METAR KPWM 220151Z 00000KT 10SM FEW140 SCT250 17/15 A3017 RMK AO2 SLP215
                 T01670150 =
2018-07-21 20:51 METAR KPWM 220051Z 00000KT 10SM FEW030 FEW140 SCT250 18/16 A3017 RMK AO2 SLP215
                 T01830156 =
2018-07-21 19:51 METAR KPWM 212351Z 19003KT 10SM FEW140 BKN250 19/16 A3017 RMK AO2 SLP215
                 T01940156 10244 20194 53005 =
2018-07-21 18:51 METAR KPWM 212251Z 17007KT 10SM FEW010 FEW140 BKN250 21/17 A3016 RMK AO2 SLP211
                 T02060167 =
2018-07-21 17:51 METAR KPWM 212151Z 17007KT 10SM FEW010 FEW160 SCT250 22/14 A3015 RMK AO2 SLP210
                 T02170139 =
2018-07-21 16:51 METAR KPWM 212051Z 18005KT 10SM FEW150 SCT250 23/13 A3015 RMK AO2 SLP209
                 T02280128 56009 =
2018-07-21 15:51 METAR KPWM 211951Z 15007KT 10SM FEW060 FEW150 SCT250 23/14 A3016 RMK AO2 SLP212
                 T02330139 =
2018-07-21 14:51 METAR KPWM 211851Z 16008KT 10SM FEW020 FEW060 BKN250 24/13 A3016 RMK AO2 SLP213
                 T02390128 =
2018-07-21 13:51 METAR KPWM 211751Z 16008KT 10SM FEW034 FEW250 24/14 A3018 RMK AO2 SLP219
                 T02390144 10244 20161 58004 =
2018-07-21 12:51 METAR KPWM 211651Z 15009KT 10SM FEW034 24/15 A3019 RMK AO2 SLP222 T02440150 =
2018-07-21 11:51 METAR KPWM 211551Z 13007G16KT 10SM FEW029 FEW250 23/15 A3019 RMK AO2 SLP224
                 T02330150 =
2018-07-21 10:51 METAR KPWM 211451Z 09008G15KT 10SM FEW028 22/16 A3019 RMK AO2 SLP224 T02220161
                 58001 =

Support USWX by starting your Amazon purchase here.